sensor_id;sensor_type;location;lat;lon;timestamp;P1;durP1;ratioP1;P2;durP2;ratioP2
37365;SDS011;23239;51.504;7.456;2022-08-19T00:00:47;12.6;;;11.1;;
37365;SDS011;23239;51.504;7.456;2022-08-19T00:05:47;14.7;;;11.5;;
37365;SDS011;23239;51.504;7.456;2022-08-19T00:10:47;12.5;;;10.3;;
37365;SDS011;23239;51.504;7.456;2022-08-19T00:15:47;12.4;;;10.9;;
37365;SDS011;23239;51.504;7.456;2022-08-19T00:20:47;12.9;;;10.8;;
37365;SDS011;23239;51.504;7.456;2022-08-19T00:25:47;11.8;;;10.6;;
37365;SDS011;23239;51.504;7.456;2022-08-19T00:30:47;13.4;;;10.8;;
37365;SDS011;23239;51.504;7.456;2022-08-19T00:35:47;12.7;;;11.4;;
37365;SDS011;23239;51.504;7.456;2022-08-19T00:40:47;12.6;;;10.9;;
37365;SDS011;23239;51.504;7.456;2022-08-19T00:45:47;13.3;;;11.6;;
37365;SDS011;23239;51.504;7.456;2022-08-19T00:50:47;12.4;;;11.1;;
37365;SDS011;23239;51.504;7.456;2022-08-19T00:55:48;12.8;;;11.3;;
37365;SDS011;23239;51.504;7.456;2022-08-19T01:00:47;15;;;11.4;;
37365;SDS011;23239;51.504;7.456;2022-08-19T01:05:48;12.2;;;10.9;;
37365;SDS011;23239;51.504;7.456;2022-08-19T01:10:48;15.6;;;11.8;;
37365;SDS011;23239;51.504;7.456;2022-08-19T01:15:51;12.7;;;11.2;;
37365;SDS011;23239;51.504;7.456;2022-08-19T01:20:47;15.6;;;12;;
37365;SDS011;23239;51.504;7.456;2022-08-19T01:25:48;16.2;;;11.9;;
37365;SDS011;23239;51.504;7.456;2022-08-19T01:30:47;13.8;;;11.6;;
37365;SDS011;23239;51.504;7.456;2022-08-19T01:35:47;12.3;;;11;;
37365;SDS011;23239;51.504;7.456;2022-08-19T01:40:47;12.8;;;10.6;;
37365;SDS011;23239;51.504;7.456;2022-08-19T01:45:47;12.1;;;10.8;;
37365;SDS011;23239;51.504;7.456;2022-08-19T01:50:47;13.7;;;10.9;;
37365;SDS011;23239;51.504;7.456;2022-08-19T01:55:47;12.2;;;10.8;;
37365;SDS011;23239;51.504;7.456;2022-08-19T02:00:47;12.1;;;10.6;;
37365;SDS011;23239;51.504;7.456;2022-08-19T02:05:47;12.2;;;9.9;;
37365;SDS011;23239;51.504;7.456;2022-08-19T02:10:47;11.5;;;10.3;;
37365;SDS011;23239;51.504;7.456;2022-08-19T02:15:47;13.3;;;10;;
37365;SDS011;23239;51.504;7.456;2022-08-19T02:20:47;12.2;;;9.5;;
37365;SDS011;23239;51.504;7.456;2022-08-19T02:25:47;12.7;;;10.4;;
37365;SDS011;23239;51.504;7.456;2022-08-19T02:30:47;12;;;10.4;;
37365;SDS011;23239;51.504;7.456;2022-08-19T02:35:47;12.6;;;10.5;;
37365;SDS011;23239;51.504;7.456;2022-08-19T02:40:48;13;;;10.7;;
37365;SDS011;23239;51.504;7.456;2022-08-19T02:45:47;14.6;;;11.1;;
37365;SDS011;23239;51.504;7.456;2022-08-19T02:50:48;13.7;;;11.2;;
37365;SDS011;23239;51.504;7.456;2022-08-19T02:55:48;12.8;;;10.9;;
37365;SDS011;23239;51.504;7.456;2022-08-19T03:00:48;11.8;;;10.6;;
37365;SDS011;23239;51.504;7.456;2022-08-19T03:05:47;11.5;;;10.3;;
37365;SDS011;23239;51.504;7.456;2022-08-19T03:10:47;11.9;;;9.5;;
37365;SDS011;23239;51.504;7.456;2022-08-19T03:15:48;11;;;9.7;;
37365;SDS011;23239;51.504;7.456;2022-08-19T03:20:48;10.7;;;9.6;;
37365;SDS011;23239;51.504;7.456;2022-08-19T03:25:48;10.4;;;9.3;;
37365;SDS011;23239;51.504;7.456;2022-08-19T03:30:55;16.2;;;11;;
37365;SDS011;23239;51.504;7.456;2022-08-19T03:35:47;13.6;;;11.3;;
37365;SDS011;23239;51.504;7.456;2022-08-19T03:40:47;12;;;10.7;;
37365;SDS011;23239;51.504;7.456;2022-08-19T03:45:47;13.4;;;11.1;;
37365;SDS011;23239;51.504;7.456;2022-08-19T03:50:47;14.2;;;11.1;;
37365;SDS011;23239;51.504;7.456;2022-08-19T03:55:47;12.9;;;10.9;;
37365;SDS011;23239;51.504;7.456;2022-08-19T04:00:47;12.3;;;10.4;;
37365;SDS011;23239;51.504;7.456;2022-08-19T04:05:47;13.9;;;11.1;;
37365;SDS011;23239;51.504;7.456;2022-08-19T04:10:48;13.8;;;11.2;;
37365;SDS011;23239;51.504;7.456;2022-08-19T04:15:47;17;;;13.1;;
37365;SDS011;23239;51.504;7.456;2022-08-19T04:20:47;16.7;;;12.3;;
37365;SDS011;23239;51.504;7.456;2022-08-19T04:25:47;14.8;;;12.2;;
37365;SDS011;23239;51.504;7.456;2022-08-19T04:30:48;14.6;;;12.4;;
37365;SDS011;23239;51.504;7.456;2022-08-19T04:35:48;13.1;;;11.8;;
37365;SDS011;23239;51.504;7.456;2022-08-19T04:40:48;15.9;;;11.5;;
37365;SDS011;23239;51.504;7.456;2022-08-19T04:45:47;14.7;;;12.1;;
37365;SDS011;23239;51.504;7.456;2022-08-19T04:50:47;13.6;;;11.3;;
37365;SDS011;23239;51.504;7.456;2022-08-19T04:55:47;14.5;;;11;;
37365;SDS011;23239;51.504;7.456;2022-08-19T05:00:47;15.2;;;12.5;;
37365;SDS011;23239;51.504;7.456;2022-08-19T05:05:47;15.1;;;11.5;;
37365;SDS011;23239;51.504;7.456;2022-08-19T05:10:48;18.7;;;12.8;;
37365;SDS011;23239;51.504;7.456;2022-08-19T05:15:52;16.1;;;13.2;;
37365;SDS011;23239;51.504;7.456;2022-08-19T05:20:47;18.2;;;13.8;;
37365;SDS011;23239;51.504;7.456;2022-08-19T05:25:47;16;;;13.3;;
37365;SDS011;23239;51.504;7.456;2022-08-19T05:30:47;18;;;13.5;;
37365;SDS011;23239;51.504;7.456;2022-08-19T05:35:48;18.2;;;15;;
37365;SDS011;23239;51.504;7.456;2022-08-19T05:40:47;21.7;;;15.9;;
37365;SDS011;23239;51.504;7.456;2022-08-19T05:45:47;24.9;;;17.2;;
37365;SDS011;23239;51.504;7.456;2022-08-19T05:50:47;20.5;;;16.2;;
37365;SDS011;23239;51.504;7.456;2022-08-19T05:55:47;23.5;;;19;;
37365;SDS011;23239;51.504;7.456;2022-08-19T06:00:47;22.3;;;17.8;;
37365;SDS011;23239;51.504;7.456;2022-08-19T06:05:47;22.7;;;17.6;;
37365;SDS011;23239;51.504;7.456;2022-08-19T06:10:47;19.8;;;15.7;;
37365;SDS011;23239;51.504;7.456;2022-08-19T06:15:47;21.4;;;16.7;;
37365;SDS011;23239;51.504;7.456;2022-08-19T06:20:47;21.4;;;16.2;;
37365;SDS011;23239;51.504;7.456;2022-08-19T06:25:47;23.5;;;17.7;;
37365;SDS011;23239;51.504;7.456;2022-08-19T06:30:47;19.9;;;16;;
37365;SDS011;23239;51.504;7.456;2022-08-19T06:35:47;19.3;;;15.9;;
37365;SDS011;23239;51.504;7.456;2022-08-19T06:40:47;21.4;;;15.3;;
37365;SDS011;23239;51.504;7.456;2022-08-19T06:45:47;20.8;;;16;;
37365;SDS011;23239;51.504;7.456;2022-08-19T06:50:47;21.9;;;15.9;;
37365;SDS011;23239;51.504;7.456;2022-08-19T06:55:47;20.2;;;15.6;;
37365;SDS011;23239;51.504;7.456;2022-08-19T07:00:47;21;;;15.8;;
37365;SDS011;23239;51.504;7.456;2022-08-19T07:05:47;24.4;;;17.2;;
37365;SDS011;23239;51.504;7.456;2022-08-19T07:10:47;23.2;;;16.9;;
37365;SDS011;23239;51.504;7.456;2022-08-19T07:15:47;21.6;;;16.3;;
37365;SDS011;23239;51.504;7.456;2022-08-19T07:20:47;24.2;;;16.6;;
37365;SDS011;23239;51.504;7.456;2022-08-19T07:25:47;25.6;;;17.8;;
37365;SDS011;23239;51.504;7.456;2022-08-19T07:30:47;21.5;;;15.7;;
37365;SDS011;23239;51.504;7.456;2022-08-19T07:35:47;24.5;;;17.3;;
37365;SDS011;23239;51.504;7.456;2022-08-19T07:40:47;21.3;;;16.2;;
37365;SDS011;23239;51.504;7.456;2022-08-19T07:45:47;21.3;;;15.6;;
37365;SDS011;23239;51.504;7.456;2022-08-19T07:50:47;22.9;;;16;;
37365;SDS011;23239;51.504;7.456;2022-08-19T07:55:48;21;;;15.3;;
37365;SDS011;23239;51.504;7.456;2022-08-19T08:00:48;21.3;;;14.2;;
37365;SDS011;23239;51.504;7.456;2022-08-19T08:05:47;26.7;;;16.1;;
37365;SDS011;23239;51.504;7.456;2022-08-19T08:10:47;16.6;;;13;;
37365;SDS011;23239;51.504;7.456;2022-08-19T08:15:47;19.6;;;14.5;;
37365;SDS011;23239;51.504;7.456;2022-08-19T08:20:47;22.7;;;15.2;;
37365;SDS011;23239;51.504;7.456;2022-08-19T08:25:47;20.4;;;15.6;;
37365;SDS011;23239;51.504;7.456;2022-08-19T08:30:48;19.8;;;15;;
37365;SDS011;23239;51.504;7.456;2022-08-19T08:35:48;18.1;;;13.3;;
37365;SDS011;23239;51.504;7.456;2022-08-19T08:40:48;21.5;;;14;;
37365;SDS011;23239;51.504;7.456;2022-08-19T08:45:50;15.1;;;11.6;;
37365;SDS011;23239;51.504;7.456;2022-08-19T08:50:47;17.5;;;11.4;;
37365;SDS011;23239;51.504;7.456;2022-08-19T08:55:47;16.8;;;12.1;;
37365;SDS011;23239;51.504;7.456;2022-08-19T09:00:48;16.5;;;12.4;;
37365;SDS011;23239;51.504;7.456;2022-08-19T09:05:49;13.3;;;10.6;;
37365;SDS011;23239;51.504;7.456;2022-08-19T09:10:49;16.2;;;12.7;;
37365;SDS011;23239;51.504;7.456;2022-08-19T09:15:48;14.3;;;10.7;;
37365;SDS011;23239;51.504;7.456;2022-08-19T09:20:47;14.3;;;11.4;;
37365;SDS011;23239;51.504;7.456;2022-08-19T09:25:47;18.7;;;14.4;;
37365;SDS011;23239;51.504;7.456;2022-08-19T09:30:48;18.1;;;14.7;;
37365;SDS011;23239;51.504;7.456;2022-08-19T09:35:47;16.7;;;12.8;;
37365;SDS011;23239;51.504;7.456;2022-08-19T09:40:48;20.4;;;11.8;;
37365;SDS011;23239;51.504;7.456;2022-08-19T09:45:47;16.5;;;13.1;;
37365;SDS011;23239;51.504;7.456;2022-08-19T09:50:47;16.8;;;12.9;;
37365;SDS011;23239;51.504;7.456;2022-08-19T09:55:47;16.6;;;12.6;;
37365;SDS011;23239;51.504;7.456;2022-08-19T10:00:47;19.1;;;15.5;;
37365;SDS011;23239;51.504;7.456;2022-08-19T10:05:48;12.4;;;11.1;;
37365;SDS011;23239;51.504;7.456;2022-08-19T10:10:48;15.6;;;13.2;;
37365;SDS011;23239;51.504;7.456;2022-08-19T10:15:48;21.8;;;17.3;;
37365;SDS011;23239;51.504;7.456;2022-08-19T10:20:48;16.5;;;12.7;;
37365;SDS011;23239;51.504;7.456;2022-08-19T10:25:48;18.9;;;12.9;;
37365;SDS011;23239;51.504;7.456;2022-08-19T10:30:47;18.2;;;12.6;;
37365;SDS011;23239;51.504;7.456;2022-08-19T10:35:47;12.3;;;9.2;;
37365;SDS011;23239;51.504;7.456;2022-08-19T10:40:47;12.9;;;8.7;;
37365;SDS011;23239;51.504;7.456;2022-08-19T10:45:51;11.4;;;8.2;;
37365;SDS011;23239;51.504;7.456;2022-08-19T10:50:47;14.4;;;10.3;;
37365;SDS011;23239;51.504;7.456;2022-08-19T10:55:47;15.4;;;10.1;;
37365;SDS011;23239;51.504;7.456;2022-08-19T11:00:50;15.9;;;9.3;;
37365;SDS011;23239;51.504;7.456;2022-08-19T11:05:56;10.6;;;8.8;;
37365;SDS011;23239;51.504;7.456;2022-08-19T11:10:47;10.5;;;9.4;;
37365;SDS011;23239;51.504;7.456;2022-08-19T11:15:47;8.3;;;6.7;;
37365;SDS011;23239;51.504;7.456;2022-08-19T11:20:47;11.3;;;7.7;;
37365;SDS011;23239;51.504;7.456;2022-08-19T11:25:48;8.4;;;6.7;;
37365;SDS011;23239;51.504;7.456;2022-08-19T11:30:47;15;;;11.5;;
37365;SDS011;23239;51.504;7.456;2022-08-19T11:35:47;10.4;;;8.7;;
37365;SDS011;23239;51.504;7.456;2022-08-19T11:40:53;11.6;;;8.9;;
37365;SDS011;23239;51.504;7.456;2022-08-19T11:45:47;9.3;;;7.5;;
37365;SDS011;23239;51.504;7.456;2022-08-19T11:50:48;8.4;;;6.8;;
37365;SDS011;23239;51.504;7.456;2022-08-19T11:55:48;10.1;;;6.3;;
37365;SDS011;23239;51.504;7.456;2022-08-19T12:00:48;10.5;;;7.5;;
37365;SDS011;23239;51.504;7.456;2022-08-19T12:05:48;16.4;;;11.5;;
37365;SDS011;23239;51.504;7.456;2022-08-19T12:10:48;14.2;;;11.3;;
37365;SDS011;23239;51.504;7.456;2022-08-19T12:15:47;22.3;;;14.1;;
37365;SDS011;23239;51.504;7.456;2022-08-19T12:20:49;19;;;16.4;;
37365;SDS011;23239;51.504;7.456;2022-08-19T12:25:48;20.5;;;16.8;;
37365;SDS011;23239;51.504;7.456;2022-08-19T12:30:48;14.7;;;12.7;;
37365;SDS011;23239;51.504;7.456;2022-08-19T12:35:47;13;;;11.6;;
37365;SDS011;23239;51.504;7.456;2022-08-19T12:40:48;12.5;;;11.2;;
37365;SDS011;23239;51.504;7.456;2022-08-19T12:45:48;15;;;12.9;;
37365;SDS011;23239;51.504;7.456;2022-08-19T12:50:47;13;;;11.1;;
37365;SDS011;23239;51.504;7.456;2022-08-19T12:55:48;15.2;;;11.3;;
37365;SDS011;23239;51.504;7.456;2022-08-19T13:00:48;16.1;;;11.8;;
37365;SDS011;23239;51.504;7.456;2022-08-19T13:05:48;13.9;;;11.2;;
37365;SDS011;23239;51.504;7.456;2022-08-19T13:10:48;14.9;;;12.1;;
37365;SDS011;23239;51.504;7.456;2022-08-19T13:15:48;16.2;;;13.1;;
37365;SDS011;23239;51.504;7.456;2022-08-19T13:20:48;15.6;;;11.9;;
37365;SDS011;23239;51.504;7.456;2022-08-19T13:25:55;14;;;11.2;;
37365;SDS011;23239;51.504;7.456;2022-08-19T13:30:48;11;;;9.6;;
37365;SDS011;23239;51.504;7.456;2022-08-19T13:35:49;10.9;;;7.6;;
37365;SDS011;23239;51.504;7.456;2022-08-19T13:40:48;7.6;;;6.6;;
37365;SDS011;23239;51.504;7.456;2022-08-19T13:45:48;8.9;;;6.8;;
37365;SDS011;23239;51.504;7.456;2022-08-19T13:50:48;10.2;;;7.8;;
37365;SDS011;23239;51.504;7.456;2022-08-19T13:55:48;9.6;;;7;;
37365;SDS011;23239;51.504;7.456;2022-08-19T14:00:48;7.5;;;6.5;;
37365;SDS011;23239;51.504;7.456;2022-08-19T14:05:48;8.8;;;6.1;;
37365;SDS011;23239;51.504;7.456;2022-08-19T14:10:48;8;;;6.7;;
37365;SDS011;23239;51.504;7.456;2022-08-19T14:15:48;12.4;;;8.3;;
37365;SDS011;23239;51.504;7.456;2022-08-19T14:20:48;8.1;;;6.9;;
37365;SDS011;23239;51.504;7.456;2022-08-19T14:25:48;11.5;;;6.9;;
37365;SDS011;23239;51.504;7.456;2022-08-19T14:30:48;8.2;;;6.9;;
37365;SDS011;23239;51.504;7.456;2022-08-19T14:35:48;10.4;;;7.8;;
37365;SDS011;23239;51.504;7.456;2022-08-19T14:40:48;7.7;;;6.5;;
37365;SDS011;23239;51.504;7.456;2022-08-19T14:45:48;9.7;;;6.7;;
37365;SDS011;23239;51.504;7.456;2022-08-19T14:50:48;7.2;;;5.9;;
37365;SDS011;23239;51.504;7.456;2022-08-19T14:55:48;6.4;;;5.3;;
37365;SDS011;23239;51.504;7.456;2022-08-19T15:00:48;6;;;5.4;;
37365;SDS011;23239;51.504;7.456;2022-08-19T15:05:48;10.2;;;6.3;;
37365;SDS011;23239;51.504;7.456;2022-08-19T15:10:48;7.5;;;5.3;;
37365;SDS011;23239;51.504;7.456;2022-08-19T15:15:48;8.1;;;5.4;;
37365;SDS011;23239;51.504;7.456;2022-08-19T15:20:48;5.7;;;4.5;;
37365;SDS011;23239;51.504;7.456;2022-08-19T15:25:48;8.2;;;4.7;;
37365;SDS011;23239;51.504;7.456;2022-08-19T15:30:49;6.5;;;4.7;;
37365;SDS011;23239;51.504;7.456;2022-08-19T15:35:48;5.3;;;4.1;;
37365;SDS011;23239;51.504;7.456;2022-08-19T15:40:49;5.1;;;4.6;;
37365;SDS011;23239;51.504;7.456;2022-08-19T15:45:48;9;;;4.4;;
37365;SDS011;23239;51.504;7.456;2022-08-19T15:50:48;6.4;;;4.5;;
37365;SDS011;23239;51.504;7.456;2022-08-19T15:55:48;5.2;;;4.1;;
37365;SDS011;23239;51.504;7.456;2022-08-19T16:00:48;6.1;;;4.2;;
37365;SDS011;23239;51.504;7.456;2022-08-19T16:05:48;4.9;;;4.3;;
37365;SDS011;23239;51.504;7.456;2022-08-19T16:10:48;6.5;;;4.9;;
37365;SDS011;23239;51.504;7.456;2022-08-19T16:15:48;5.6;;;4.4;;
37365;SDS011;23239;51.504;7.456;2022-08-19T16:20:48;8.4;;;5.3;;
37365;SDS011;23239;51.504;7.456;2022-08-19T16:25:48;8.6;;;5.3;;
37365;SDS011;23239;51.504;7.456;2022-08-19T16:30:48;5.7;;;5.1;;
37365;SDS011;23239;51.504;7.456;2022-08-19T16:35:48;9.7;;;6.5;;
37365;SDS011;23239;51.504;7.456;2022-08-19T16:40:48;10.3;;;6.5;;
37365;SDS011;23239;51.504;7.456;2022-08-19T16:45:48;10.5;;;7.3;;
37365;SDS011;23239;51.504;7.456;2022-08-19T16:50:48;10.7;;;7.8;;
37365;SDS011;23239;51.504;7.456;2022-08-19T16:55:48;8.7;;;7.5;;
37365;SDS011;23239;51.504;7.456;2022-08-19T17:00:48;7.7;;;6.9;;
37365;SDS011;23239;51.504;7.456;2022-08-19T17:05:48;9.7;;;7.7;;
37365;SDS011;23239;51.504;7.456;2022-08-19T17:10:48;10.1;;;7.2;;
37365;SDS011;23239;51.504;7.456;2022-08-19T17:15:48;10.1;;;7.4;;
37365;SDS011;23239;51.504;7.456;2022-08-19T17:20:48;9.3;;;7.6;;
37365;SDS011;23239;51.504;7.456;2022-08-19T17:25:48;10.9;;;7.1;;
37365;SDS011;23239;51.504;7.456;2022-08-19T17:30:48;12;;;7.1;;
37365;SDS011;23239;51.504;7.456;2022-08-19T17:35:48;10.1;;;7.2;;
37365;SDS011;23239;51.504;7.456;2022-08-19T17:40:48;12.1;;;7.9;;
37365;SDS011;23239;51.504;7.456;2022-08-19T17:45:48;12;;;7.3;;
37365;SDS011;23239;51.504;7.456;2022-08-19T17:50:48;9.1;;;7.2;;
37365;SDS011;23239;51.504;7.456;2022-08-19T17:55:48;10.7;;;8.1;;
37365;SDS011;23239;51.504;7.456;2022-08-19T18:00:48;11;;;8.1;;
37365;SDS011;23239;51.504;7.456;2022-08-19T18:05:48;13.7;;;8.9;;
37365;SDS011;23239;51.504;7.456;2022-08-19T18:10:48;11.6;;;9;;
37365;SDS011;23239;51.504;7.456;2022-08-19T18:15:48;13.7;;;9.3;;
37365;SDS011;23239;51.504;7.456;2022-08-19T18:20:48;12.6;;;9.5;;
37365;SDS011;23239;51.504;7.456;2022-08-19T18:25:48;13;;;9;;
37365;SDS011;23239;51.504;7.456;2022-08-19T18:30:48;10.8;;;8.5;;
37365;SDS011;23239;51.504;7.456;2022-08-19T18:35:48;12.8;;;9.1;;
37365;SDS011;23239;51.504;7.456;2022-08-19T18:40:48;12.9;;;8.9;;
37365;SDS011;23239;51.504;7.456;2022-08-19T18:45:48;14;;;9.3;;
37365;SDS011;23239;51.504;7.456;2022-08-19T18:50:48;12.2;;;9.4;;
37365;SDS011;23239;51.504;7.456;2022-08-19T18:55:48;15;;;9.6;;
37365;SDS011;23239;51.504;7.456;2022-08-19T19:00:48;13;;;9.2;;
37365;SDS011;23239;51.504;7.456;2022-08-19T19:05:48;13.8;;;9.1;;
37365;SDS011;23239;51.504;7.456;2022-08-19T19:10:48;11.8;;;8.3;;
37365;SDS011;23239;51.504;7.456;2022-08-19T19:15:48;12.1;;;8.1;;
37365;SDS011;23239;51.504;7.456;2022-08-19T19:20:48;13.4;;;8.1;;
37365;SDS011;23239;51.504;7.456;2022-08-19T19:25:48;11.5;;;7.6;;
37365;SDS011;23239;51.504;7.456;2022-08-19T19:30:48;11.1;;;7.9;;
37365;SDS011;23239;51.504;7.456;2022-08-19T19:35:48;12.4;;;9;;
37365;SDS011;23239;51.504;7.456;2022-08-19T19:40:48;16.2;;;9.8;;
37365;SDS011;23239;51.504;7.456;2022-08-19T19:45:48;15.9;;;9.7;;
37365;SDS011;23239;51.504;7.456;2022-08-19T19:50:48;13;;;9.8;;
37365;SDS011;23239;51.504;7.456;2022-08-19T19:55:48;15.6;;;10.4;;
37365;SDS011;23239;51.504;7.456;2022-08-19T20:00:48;16.2;;;12.6;;
37365;SDS011;23239;51.504;7.456;2022-08-19T20:05:48;17.6;;;12.7;;
37365;SDS011;23239;51.504;7.456;2022-08-19T20:10:48;21.8;;;14.2;;
37365;SDS011;23239;51.504;7.456;2022-08-19T20:15:48;19.7;;;13.6;;
37365;SDS011;23239;51.504;7.456;2022-08-19T20:20:48;19.3;;;13.2;;
37365;SDS011;23239;51.504;7.456;2022-08-19T20:25:49;17.3;;;12.6;;
37365;SDS011;23239;51.504;7.456;2022-08-19T20:30:48;17.4;;;12.6;;
37365;SDS011;23239;51.504;7.456;2022-08-19T20:35:48;17.1;;;12.1;;
37365;SDS011;23239;51.504;7.456;2022-08-19T20:40:48;14.5;;;11;;
37365;SDS011;23239;51.504;7.456;2022-08-19T20:45:48;15.8;;;11.1;;
37365;SDS011;23239;51.504;7.456;2022-08-19T20:50:48;13.6;;;10.8;;
37365;SDS011;23239;51.504;7.456;2022-08-19T20:55:48;15.3;;;10.9;;
37365;SDS011;23239;51.504;7.456;2022-08-19T21:00:48;12.7;;;9.4;;
37365;SDS011;23239;51.504;7.456;2022-08-19T21:05:48;14;;;10;;
37365;SDS011;23239;51.504;7.456;2022-08-19T21:10:49;13.2;;;9.7;;
37365;SDS011;23239;51.504;7.456;2022-08-19T21:15:48;11.6;;;9.4;;
37365;SDS011;23239;51.504;7.456;2022-08-19T21:20:48;11.5;;;9.8;;
37365;SDS011;23239;51.504;7.456;2022-08-19T21:25:49;13.6;;;10.1;;
37365;SDS011;23239;51.504;7.456;2022-08-19T21:30:48;13.6;;;9.7;;
37365;SDS011;23239;51.504;7.456;2022-08-19T21:35:48;10.5;;;9;;
37365;SDS011;23239;51.504;7.456;2022-08-19T21:40:48;15.2;;;10.5;;
37365;SDS011;23239;51.504;7.456;2022-08-19T21:45:48;13.1;;;9.9;;
37365;SDS011;23239;51.504;7.456;2022-08-19T21:50:48;13.5;;;10.1;;
37365;SDS011;23239;51.504;7.456;2022-08-19T21:55:48;13.8;;;10.2;;
37365;SDS011;23239;51.504;7.456;2022-08-19T22:00:48;14.8;;;10.3;;
37365;SDS011;23239;51.504;7.456;2022-08-19T22:05:48;14.2;;;10;;
37365;SDS011;23239;51.504;7.456;2022-08-19T22:10:48;12;;;9.4;;
37365;SDS011;23239;51.504;7.456;2022-08-19T22:15:48;13.6;;;9.4;;
37365;SDS011;23239;51.504;7.456;2022-08-19T22:20:48;11.6;;;9.3;;
37365;SDS011;23239;51.504;7.456;2022-08-19T22:25:48;10.8;;;8.5;;
37365;SDS011;23239;51.504;7.456;2022-08-19T22:30:48;13.6;;;9.7;;
37365;SDS011;23239;51.504;7.456;2022-08-19T22:35:50;11.3;;;8.7;;
37365;SDS011;23239;51.504;7.456;2022-08-19T22:40:48;10.2;;;8.5;;
37365;SDS011;23239;51.504;7.456;2022-08-19T22:45:48;11.5;;;8.9;;
37365;SDS011;23239;51.504;7.456;2022-08-19T22:50:48;11.2;;;8.1;;
37365;SDS011;23239;51.504;7.456;2022-08-19T22:55:48;11.6;;;9.2;;
37365;SDS011;23239;51.504;7.456;2022-08-19T23:00:48;10.8;;;8.2;;
37365;SDS011;23239;51.504;7.456;2022-08-19T23:05:48;10.1;;;8.1;;
37365;SDS011;23239;51.504;7.456;2022-08-19T23:10:48;13.3;;;8.5;;
37365;SDS011;23239;51.504;7.456;2022-08-19T23:15:48;11.1;;;8.9;;
37365;SDS011;23239;51.504;7.456;2022-08-19T23:20:48;14.1;;;9.3;;
37365;SDS011;23239;51.504;7.456;2022-08-19T23:25:48;11.8;;;9.5;;
37365;SDS011;23239;51.504;7.456;2022-08-19T23:30:48;14.4;;;10;;
37365;SDS011;23239;51.504;7.456;2022-08-19T23:35:48;14.1;;;11;;
37365;SDS011;23239;51.504;7.456;2022-08-19T23:40:49;16.4;;;10.7;;
37365;SDS011;23239;51.504;7.456;2022-08-19T23:45:48;14.4;;;10.8;;
37365;SDS011;23239;51.504;7.456;2022-08-19T23:50:48;16.8;;;12;;
37365;SDS011;23239;51.504;7.456;2022-08-19T23:55:48;17.1;;;12.9;;
